Time;durP1;ratioP1;P1;durP2;ratioP2;P2;SDS_P1;SDS_P2;PMS_P1;PMS_P2;Temp;Humidity;BMP_temperature;BMP_pressure;BME280_temperature;BME280_humidity;BME280_pressure;Samples;Min_cycle;Max_cycle;Signal;HPM_P1;HPM_P2
2022/08/30 00:03:37;;;;;;;11.30;6.10;;;13.40;99.90;;;;;;9540172;31;20130;-82
2022/08/30 00:08:40;;;;;;;14.30;6.20;;;13.50;99.90;;;;;;9550950;31;20050;-80
2022/08/30 00:13:43;;;;;;;14.20;7.40;;;13.50;99.90;;;;;;9553319;31;20047;-81
2022/08/30 00:18:44;;;;;;;16.02;6.90;;;13.40;99.90;;;;;;9542812;31;20109;-80
2022/08/30 00:23:45;;;;;;;13.23;6.70;;;13.20;99.90;;;;;;9548642;31;20055;-79
2022/08/30 00:28:45;;;;;;;17.45;7.10;;;13.10;99.90;;;;;;9546789;31;20038;-80
2022/08/30 00:33:46;;;;;;;12.40;6.32;;;13.10;99.90;;;;;;9567125;31;20082;-80
2022/08/30 00:38:47;;;;;;;10.95;5.72;;;13.10;99.90;;;;;;9558740;31;20035;-81
2022/08/30 00:43:47;;;;;;;10.07;5.72;;;13.00;99.90;;;;;;9549913;31;20391;-81
2022/08/30 00:48:48;;;;;;;15.43;6.75;;;13.10;99.90;;;;;;9550391;31;20401;-81
2022/08/30 00:53:56;;;;;;;11.25;5.80;;;13.20;99.90;;;;;;9536763;31;20506;-79
2022/08/30 00:59:01;;;;;;;12.75;6.35;;;13.20;99.90;;;;;;9551001;31;20084;-80
2022/08/30 01:04:05;;;;;;;13.70;6.15;;;13.20;99.90;;;;;;9545428;31;20419;-80
2022/08/30 01:09:06;;;;;;;12.50;5.97;;;13.20;99.90;;;;;;9541808;31;20040;-80
2022/08/30 01:14:08;;;;;;;14.05;6.13;;;13.20;99.90;;;;;;9545638;31;20051;-80
2022/08/30 01:19:37;;;;;;;10.75;4.80;;;13.00;99.90;;;;;;9545413;31;20101;-80
2022/08/30 01:24:37;;;;;;;11.27;5.80;;;12.90;99.90;;;;;;9540101;31;20129;-79
2022/08/30 01:29:38;;;;;;;12.60;6.43;;;12.90;99.90;;;;;;9542111;31;20067;-79
2022/08/30 01:34:39;;;;;;;17.65;9.13;;;12.80;99.90;;;;;;9545451;31;20051;-81
2022/08/30 01:39:39;;;;;;;21.30;11.23;;;12.70;99.90;;;;;;9550383;31;20050;-79
2022/08/30 01:44:40;;;;;;;19.27;10.38;;;12.70;99.90;;;;;;9548602;31;20048;-79
2022/08/30 01:49:41;;;;;;;20.52;12.00;;;12.70;99.90;;;;;;9557745;30;20035;-81
2022/08/30 01:54:43;;;;;;;18.63;9.95;;;12.70;99.90;;;;;;9546751;31;20071;-80
2022/08/30 01:59:46;;;;;;;18.35;9.90;;;12.70;99.90;;;;;;9552088;31;20127;-81
2022/08/30 02:04:47;;;;;;;20.75;10.82;;;12.70;99.90;;;;;;9548938;31;20054;-79
2022/08/30 02:09:48;;;;;;;16.85;8.48;;;12.60;99.90;;;;;;9545715;31;20040;-81
2022/08/30 02:14:49;;;;;;;18.13;9.25;;;12.70;99.90;;;;;;9563424;31;20056;-81
2022/08/30 02:19:49;;;;;;;15.20;8.15;;;12.70;99.90;;;;;;9543840;31;20175;-79
2022/08/30 02:24:50;;;;;;;12.93;7.43;;;12.70;99.90;;;;;;9567460;31;20066;-82
2022/08/30 02:29:51;;;;;;;15.75;9.10;;;12.60;99.90;;;;;;9550714;31;20044;-80
2022/08/30 02:34:51;;;;;;;15.77;8.50;;;12.70;99.90;;;;;;9563651;31;20130;-80
2022/08/30 02:39:52;;;;;;;15.38;8.20;;;12.70;99.90;;;;;;9551827;31;20122;-79
2022/08/30 02:44:53;;;;;;;16.90;8.13;;;12.60;99.90;;;;;;9546106;31;20122;-81
2022/08/30 02:49:53;;;;;;;16.55;8.27;;;12.60;99.90;;;;;;9565804;31;20043;-79
2022/08/30 02:54:55;;;;;;;16.63;8.40;;;12.60;99.90;;;;;;9565455;31;20056;-80
2022/08/30 02:59:55;;;;;;;18.48;7.60;;;12.50;99.90;;;;;;9557341;31;20040;-79
2022/08/30 03:04:56;;;;;;;14.23;8.20;;;12.50;99.90;;;;;;9545287;31;20047;-80
2022/08/30 03:09:57;;;;;;;19.02;9.48;;;12.40;99.90;;;;;;9557733;31;20036;-80
2022/08/30 03:14:58;;;;;;;15.43;8.55;;;12.40;99.90;;;;;;9547709;31;20079;-80
2022/08/30 03:19:59;;;;;;;15.15;8.00;;;12.40;99.90;;;;;;9559261;30;20055;-80
2022/08/30 03:25:00;;;;;;;13.57;7.65;;;12.40;99.90;;;;;;9555414;31;20418;-81
2022/08/30 03:30:01;;;;;;;22.65;9.63;;;12.50;99.90;;;;;;9549047;31;20034;-79
2022/08/30 03:35:02;;;;;;;19.17;9.07;;;12.60;99.90;;;;;;9548986;31;20521;-80
2022/08/30 03:40:07;;;;;;;14.07;7.22;;;12.50;99.90;;;;;;9543606;30;20036;-79
2022/08/30 03:45:08;;;;;;;15.23;8.45;;;12.50;99.90;;;;;;9554075;31;20039;-80
2022/08/30 03:50:11;;;;;;;17.98;8.57;;;12.60;99.90;;;;;;9552953;31;20411;-79
2022/08/30 03:55:12;;;;;;;17.17;8.32;;;12.50;99.90;;;;;;9548663;31;20532;-82
2022/08/30 04:00:14;;;;;;;15.55;7.85;;;12.30;99.90;;;;;;9551973;31;20122;-79
2022/08/30 04:05:15;;;;;;;18.85;8.85;;;12.20;99.90;;;;;;9539910;31;20466;-79
2022/08/30 04:10:16;;;;;;;20.63;10.25;;;12.10;99.90;;;;;;9542992;31;20095;-81
2022/08/30 04:15:18;;;;;;;21.83;11.23;;;12.10;99.90;;;;;;9540848;31;20474;-80
2022/08/30 04:20:19;;;;;;;23.15;11.43;;;12.30;99.90;;;;;;9527647;31;20430;-80
2022/08/30 04:25:20;;;;;;;19.20;10.80;;;12.30;99.90;;;;;;9529536;31;20072;-80
2022/08/30 04:30:21;;;;;;;17.20;10.52;;;12.40;99.90;;;;;;9531680;31;20622;-87
2022/08/30 04:35:22;;;;;;;20.60;10.00;;;12.50;99.90;;;;;;9521531;31;20056;-86
2022/08/30 04:40:22;;;;;;;17.65;9.95;;;12.50;99.90;;;;;;9530856;31;20054;-83
2022/08/30 04:45:23;;;;;;;12.60;8.35;;;12.50;99.90;;;;;;9532150;31;20036;-83
2022/08/30 04:50:24;;;;;;;19.50;10.55;;;12.60;99.90;;;;;;9529463;31;20054;-83
2022/08/30 04:55:25;;;;;;;18.25;11.45;;;12.70;99.90;;;;;;9527560;31;20070;-83
2022/08/30 05:00:25;;;;;;;20.30;12.27;;;12.80;99.90;;;;;;9530512;31;20106;-83
2022/08/30 05:05:38;;;;;;;22.67;12.55;;;13.10;99.90;;;;;;9532385;31;20047;-83
2022/08/30 05:10:42;;;;;;;26.65;14.45;;;13.50;99.90;;;;;;9536236;31;20090;-83
2022/08/30 05:15:43;;;;;;;21.05;13.23;;;13.80;99.90;;;;;;9530596;31;20043;-83
2022/08/30 05:20:44;;;;;;;23.85;11.75;;;14.00;99.90;;;;;;9533097;31;20031;-83
2022/08/30 05:25:45;;;;;;;22.63;10.23;;;14.30;99.90;;;;;;9531829;31;20056;-83
2022/08/30 05:30:45;;;;;;;19.00;11.00;;;14.50;99.90;;;;;;9533370;31;20042;-83
2022/08/30 05:35:46;;;;;;;21.63;13.02;;;14.50;99.90;;;;;;9531761;31;20051;-84
2022/08/30 05:40:46;;;;;;;22.48;13.45;;;14.60;99.90;;;;;;9532344;31;20505;-84
2022/08/30 05:45:47;;;;;;;24.10;13.95;;;14.70;99.90;;;;;;9532002;31;20043;-83
2022/08/30 05:50:47;;;;;;;22.25;12.70;;;14.90;99.90;;;;;;9528556;31;20036;-84
2022/08/30 05:55:48;;;;;;;18.45;12.27;;;14.90;99.90;;;;;;9535972;31;20048;-83
2022/08/30 06:00:48;;;;;;;21.60;11.18;;;15.00;99.90;;;;;;9525338;31;20052;-83
2022/08/30 06:05:49;;;;;;;17.52;11.63;;;15.20;99.90;;;;;;9531951;31;20040;-83
2022/08/30 06:10:50;;;;;;;20.83;12.15;;;15.30;99.90;;;;;;9530421;31;20031;-84
2022/08/30 06:15:51;;;;;;;19.67;11.93;;;15.40;99.90;;;;;;9539153;31;20486;-83
2022/08/30 06:20:52;;;;;;;16.20;10.30;;;15.40;99.90;;;;;;9534917;31;20040;-83
2022/08/30 06:25:52;;;;;;;21.83;12.35;;;15.60;99.90;;;;;;9542273;31;20078;-83
2022/08/30 06:30:53;;;;;;;19.38;10.73;;;15.80;99.90;;;;;;9533707;31;20036;-84
2022/08/30 06:35:53;;;;;;;17.08;10.90;;;16.00;99.90;;;;;;9540074;31;20051;-83
2022/08/30 06:40:54;;;;;;;16.75;10.93;;;16.10;99.90;;;;;;9534559;31;20035;-83
2022/08/30 06:45:55;;;;;;;16.75;10.13;;;16.20;99.90;;;;;;9538115;31;20036;-83
2022/08/30 06:50:55;;;;;;;15.00;8.25;;;16.40;99.90;;;;;;9534220;31;20043;-83
2022/08/30 06:55:59;;;;;;;12.90;7.18;;;16.70;99.90;;;;;;9536085;31;20055;-83
2022/08/30 07:01:00;;;;;;;13.43;7.57;;;16.80;99.90;;;;;;9532848;31;20044;-82
2022/08/30 07:06:01;;;;;;;14.95;8.27;;;16.90;99.90;;;;;;9540162;31;20512;-83
2022/08/30 07:11:04;;;;;;;12.40;7.68;;;17.20;99.90;;;;;;9536947;31;20091;-84
2022/08/30 07:16:12;;;;;;;13.63;7.10;;;17.60;99.90;;;;;;9537742;31;20564;-83
2022/08/30 07:21:15;;;;;;;12.93;7.88;;;18.10;99.90;;;;;;9536985;31;20122;-84
2022/08/30 07:26:26;;;;;;;12.63;6.85;;;18.20;99.90;;;;;;9540491;31;20091;-82
2022/08/30 07:31:27;;;;;;;10.07;7.18;;;18.50;99.90;;;;;;9546480;31;20040;-81
2022/08/30 07:36:28;;;;;;;10.32;7.45;;;18.60;99.90;;;;;;9543316;31;20043;-81
2022/08/30 07:41:32;;;;;;;8.48;6.30;;;18.90;99.90;;;;;;9560923;31;20047;-81
2022/08/30 07:46:34;;;;;;;9.90;6.78;;;19.40;99.90;;;;;;9564661;31;20118;-81
2022/08/30 07:51:35;;;;;;;9.93;6.35;;;19.80;99.90;;;;;;9560917;31;20055;-81
2022/08/30 07:56:36;;;;;;;8.02;5.55;;;19.70;99.90;;;;;;9571967;31;20154;-81
2022/08/30 08:01:37;;;;;;;8.43;5.70;;;19.70;99.90;;;;;;9560999;31;20043;-81
2022/08/30 08:06:39;;;;;;;5.93;4.72;;;20.10;99.90;;;;;;9549239;31;20130;-82
2022/08/30 08:11:40;;;;;;;10.35;4.90;;;20.30;99.90;;;;;;9550666;31;20722;-82
2022/08/30 08:16:43;;;;;;;10.30;5.60;;;20.60;99.90;;;;;;9569277;30;20047;-82
2022/08/30 08:21:44;;;;;;;6.90;4.25;;;20.70;99.90;;;;;;9573129;30;20498;-82
2022/08/30 08:26:45;;;;;;;10.57;7.30;;;20.70;99.90;;;;;;9565852;31;20449;-81
2022/08/30 08:31:45;;;;;;;5.57;3.97;;;20.50;99.90;;;;;;9564448;30;20133;-81
2022/08/30 08:36:47;;;;;;;6.60;4.10;;;21.00;99.90;;;;;;9548874;31;20039;-83
2022/08/30 08:42:03;;;;;;;5.45;3.67;;;21.60;99.90;;;;;;9557704;31;20147;-83
2022/08/30 08:47:28;;;;;;;6.63;3.58;;;21.60;99.90;;;;;;9568633;31;20047;-84
2022/08/30 08:57:58;;;;;;;4.65;3.40;;;21.00;99.90;;;;;;9564583;31;19925;-82
2022/08/30 09:03:03;;;;;;;5.68;4.30;;;20.70;99.90;;;;;;9537432;31;20496;-83
2022/08/30 09:08:07;;;;;;;3.88;3.47;;;20.60;99.90;;;;;;9543996;31;20537;-83
2022/08/30 09:13:08;;;;;;;4.23;3.40;;;20.50;99.90;;;;;;9552788;31;20044;-84
2022/08/30 09:18:08;;;;;;;5.07;3.58;;;20.70;99.90;;;;;;9554778;31;20047;-83
2022/08/30 09:23:15;;;;;;;7.00;3.90;;;21.20;99.90;;;;;;9541439;31;20064;-84
2022/08/30 09:28:24;;;;;;;4.43;3.28;;;20.80;99.90;;;;;;9561913;31;20032;-84
2022/08/30 09:33:25;;;;;;;4.80;3.13;;;20.40;99.90;;;;;;9535074;31;20106;-83
2022/08/30 09:38:31;;;;;;;4.57;3.55;;;20.90;99.90;;;;;;9543242;31;20577;-82
2022/08/30 09:43:33;;;;;;;5.00;3.10;;;21.60;99.90;;;;;;9554635;31;20466;-83
2022/08/30 09:48:43;;;;;;;2.88;2.50;;;21.60;99.90;;;;;;9562242;30;20391;-83
2022/08/30 09:53:48;;;;;;;2.83;2.28;;;21.90;99.90;;;;;;9549190;30;20047;-84
2022/08/30 09:59:10;;;;;;;2.50;2.30;;;22.30;99.90;;;;;;9569426;31;20048;-84
2022/08/30 10:04:22;;;;;;;4.00;2.30;;;22.70;99.90;;;;;;9575183;31;20031;-83
2022/08/30 10:09:23;;;;;;;4.30;1.95;;;22.90;99.40;;;;;;9574871;31;20126;-83
2022/08/30 10:14:50;;;;;;;4.10;2.58;;;23.30;97.40;;;;;;9554317;31;20504;-84
2022/08/30 10:20:24;;;;;;;2.70;2.42;;;23.60;96.80;;;;;;9535906;31;20035;-83
2022/08/30 10:25:33;;;;;;;4.10;3.70;;;23.30;94.30;;;;;;9504626;31;20142;-83
2022/08/30 10:30:39;;;;;;;4.10;3.45;;;23.60;94.10;;;;;;9578893;31;20486;-83
2022/08/30 10:35:47;;;;;;;2.40;2.20;;;24.00;93.80;;;;;;9568920;31;20062;-82
2022/08/30 10:41:12;;;;;;;10.40;3.45;;;24.00;93.10;;;;;;9566280;31;20063;-83
2022/08/30 10:46:20;;;;;;;1.80;1.63;;;23.70;92.50;;;;;;9565713;31;20074;-83
2022/08/30 10:51:35;;;;;;;2.65;2.03;;;23.60;92.80;;;;;;9549216;31;20094;-82
2022/08/30 10:56:37;;;;;;;;;;;23.40;93.20;;;;;;9563610;31;20081;-84
2022/08/30 11:02:08;;;;;;;2.10;1.80;;;23.90;92.20;;;;;;9576920;31;19920;-83
2022/08/30 11:07:20;;;;;;;2.42;2.03;;;24.30;91.20;;;;;;9564879;31;20534;-83
2022/08/30 11:12:40;;;;;;;2.33;2.05;;;24.90;90.00;;;;;;9556863;31;20032;-84
2022/08/30 11:17:55;;;;;;;4.03;2.47;;;24.10;89.60;;;;;;9563350;30;20482;-83
2022/08/30 11:23:17;;;;;;;2.78;2.55;;;23.40;90.30;;;;;;9555023;31;20051;-83
2022/08/30 11:28:36;;;;;;;2.28;1.98;;;23.80;92.10;;;;;;9547828;31;20133;-83
2022/08/30 11:33:46;;;;;;;3.28;2.67;;;24.20;88.90;;;;;;9554134;31;20150;-83
2022/08/30 11:38:46;;;;;;;4.25;2.92;;;24.00;87.60;;;;;;9532138;31;20570;-84
2022/08/30 11:43:49;;;;;;;4.07;3.03;;;23.50;90.40;;;;;;9552288;31;20043;-83
2022/08/30 11:48:55;;;;;;;3.08;2.50;;;23.10;90.60;;;;;;9569363;31;20413;-82
2022/08/30 11:54:24;;;;;;;3.33;2.80;;;22.70;90.70;;;;;;9574330;31;20051;-83
2022/08/30 11:59:41;;;;;;;3.15;2.78;;;22.40;90.80;;;;;;9566734;31;20501;-84
2022/08/30 12:04:44;;;;;;;3.67;2.40;;;22.80;92.50;;;;;;9563538;31;20047;-83
2022/08/30 12:09:45;;;;;;;4.72;3.20;;;23.80;91.20;;;;;;9558392;31;20047;-83
2022/08/30 12:14:56;;;;;;;2.85;2.35;;;23.80;90.40;;;;;;9547373;31;20063;-83
2022/08/30 12:19:58;;;;;;;2.90;2.20;;;24.10;90.20;;;;;;9554475;31;20050;-83
2022/08/30 12:24:59;;;;;;;3.13;2.53;;;24.60;89.80;;;;;;9543701;31;20060;-85
2022/08/30 12:30:05;;;;;;;2.70;2.50;;;25.20;86.20;;;;;;9538100;30;20032;-83
2022/08/30 12:35:06;;;;;;;2.90;1.98;;;25.70;84.90;;;;;;9541819;31;20051;-84
2022/08/30 12:40:07;;;;;;;2.00;1.83;;;25.90;81.80;;;;;;9555128;31;20508;-83
2022/08/30 12:45:14;;;;;;;1.88;1.48;;;25.40;79.90;;;;;;9563951;31;20039;-83
2022/08/30 12:50:23;;;;;;;1.77;1.58;;;24.90;80.80;;;;;;9557677;31;20031;-84
2022/08/30 12:55:31;;;;;;;2.95;1.88;;;24.70;84.00;;;;;;9535015;31;20094;-83
2022/08/30 13:00:33;;;;;;;2.28;2.08;;;24.90;80.90;;;;;;9552650;31;20040;-85
2022/08/30 13:05:39;;;;;;;2.78;2.20;;;25.00;80.90;;;;;;9553369;31;20127;-85
2022/08/30 13:10:53;;;;;;;2.90;1.90;;;24.70;81.10;;;;;;9573419;31;20038;-82
2022/08/30 13:15:54;;;;;;;1.88;1.35;;;25.10;81.40;;;;;;9552289;31;20468;-83
2022/08/30 13:21:28;;;;;;;2.20;1.98;;;25.00;78.80;;;;;;9512381;31;20489;-86
2022/08/30 13:26:32;;;;;;;2.33;2.13;;;24.20;81.50;;;;;;9553053;31;20051;-85
2022/08/30 13:31:32;;;;;;;4.82;2.22;;;23.60;84.30;;;;;;9533862;31;20028;-85
2022/08/30 13:36:42;;;;;;;2.80;2.20;;;23.90;83.30;;;;;;9566090;31;20039;-83
2022/08/30 13:41:43;;;;;;;2.15;1.95;;;23.60;82.90;;;;;;9554701;31;20461;-84
2022/08/30 13:46:51;;;;;;;2.38;2.13;;;23.30;84.10;;;;;;9556938;31;20032;-85
2022/08/30 13:51:52;;;;;;;3.85;1.90;;;23.10;80.90;;;;;;9559020;31;20122;-83
2022/08/30 13:56:54;;;;;;;3.20;1.63;;;22.70;81.70;;;;;;9574398;30;20522;-85
2022/08/30 14:01:55;;;;;;;2.42;2.03;;;22.50;86.50;;;;;;9575569;30;20478;-85
2022/08/30 14:06:56;;;;;;;1.80;1.70;;;22.40;87.10;;;;;;9568207;31;20043;-85
2022/08/30 14:11:56;;;;;;;4.18;2.63;;;22.40;86.40;;;;;;9551200;31;20044;-86
2022/08/30 14:16:57;;;;;;;2.67;2.15;;;22.40;85.50;;;;;;9563574;31;20102;-83
2022/08/30 14:21:57;;;;;;;2.40;2.00;;;22.50;86.00;;;;;;9566482;31;20055;-85
2022/08/30 14:26:58;;;;;;;2.50;2.30;;;22.60;87.40;;;;;;9558222;31;20036;-85
2022/08/30 14:31:59;;;;;;;3.45;2.50;;;22.40;85.30;;;;;;9551575;31;20040;-83
2022/08/30 14:36:59;;;;;;;1.98;1.80;;;22.30;87.40;;;;;;9540319;31;20051;-84
2022/08/30 14:42:00;;;;;;;4.07;1.95;;;22.70;90.10;;;;;;9540608;30;20040;-84
2022/08/30 14:47:01;;;;;;;3.47;2.40;;;23.10;84.10;;;;;;9541667;31;20040;-87
2022/08/30 14:52:02;;;;;;;2.50;2.05;;;22.90;84.30;;;;;;9537581;31;20044;-86
2022/08/30 14:57:03;;;;;;;3.45;2.60;;;22.80;83.80;;;;;;9544217;31;20123;-90
2022/08/30 15:02:04;;;;;;;2.95;2.30;;;22.80;83.60;;;;;;9535207;31;20119;-89
2022/08/30 15:07:04;;;;;;;3.42;2.38;;;22.70;84.90;;;;;;9538616;31;20059;-89
2022/08/30 15:12:05;;;;;;;3.00;2.20;;;22.60;85.30;;;;;;9546361;31;20119;-87
2022/08/30 15:17:06;;;;;;;2.28;2.08;;;22.70;86.40;;;;;;9527517;31;20048;-88
2022/08/30 15:22:07;;;;;;;2.20;2.00;;;22.70;84.80;;;;;;9537021;31;20062;-85
2022/08/30 15:27:08;;;;;;;2.38;2.10;;;22.70;83.70;;;;;;9549241;31;20024;-87
2022/08/30 15:32:12;;;;;;;1.90;1.80;;;22.70;83.10;;;;;;9543185;31;20039;-86
2022/08/30 15:37:15;;;;;;;2.90;2.40;;;22.50;84.30;;;;;;9532138;31;20054;-87
2022/08/30 15:42:18;;;;;;;4.85;3.28;;;22.30;85.40;;;;;;9546277;31;20836;-87
2022/08/30 15:47:20;;;;;;;5.68;4.05;;;22.20;88.40;;;;;;9556021;31;20079;-88
2022/08/30 15:52:21;;;;;;;5.05;3.65;;;22.20;90.20;;;;;;9519287;31;20729;-86
2022/08/30 15:57:22;;;;;;;4.65;3.38;;;22.00;90.70;;;;;;9545313;31;20748;-87
2022/08/30 16:02:22;;;;;;;4.55;3.33;;;22.00;91.00;;;;;;9544917;31;20127;-87
2022/08/30 16:07:23;;;;;;;4.05;3.30;;;21.90;90.90;;;;;;9542966;31;20040;-87
2022/08/30 16:12:27;;;;;;;4.47;3.55;;;21.80;91.30;;;;;;9554291;31;20043;-87
2022/08/30 16:17:40;;;;;;;4.18;3.40;;;21.70;91.60;;;;;;9536359;31;20051;-88
2022/08/30 16:22:41;;;;;;;7.45;4.03;;;21.60;91.90;;;;;;9537436;31;20059;-87
2022/08/30 16:27:42;;;;;;;4.95;3.80;;;21.50;92.50;;;;;;9554359;31;20035;-88
2022/08/30 16:32:48;;;;;;;6.53;4.38;;;21.30;92.80;;;;;;9533709;31;20521;-88
2022/08/30 16:37:48;;;;;;;;;;;21.20;92.60;;;;;;9544402;31;20050;-88
2022/08/30 16:42:49;;;;;;;4.60;4.13;;;21.00;92.80;;;;;;9530643;31;19921;-88
2022/08/30 16:47:50;;;;;;;4.20;3.67;;;20.70;93.20;;;;;;9561798;31;20050;-88
2022/08/30 16:52:50;;;;;;;7.88;4.30;;;20.60;93.80;;;;;;9538440;31;20449;-88
2022/08/30 16:57:51;;;;;;;4.25;3.63;;;20.50;95.00;;;;;;9537322;31;20036;-88
2022/08/30 17:02:53;;;;;;;4.30;3.90;;;20.20;97.30;;;;;;9530569;31;20043;-86
2022/08/30 17:08:25;;;;;;;6.68;4.70;;;19.90;99.90;;;;;;9530086;31;20494;-87
2022/08/30 17:13:26;;;;;;;8.65;5.65;;;19.50;99.90;;;;;;9534710;31;20134;-87
2022/08/30 17:18:26;;;;;;;6.78;4.65;;;19.20;99.90;;;;;;9546997;31;20450;-88
2022/08/30 17:23:27;;;;;;;7.38;4.85;;;18.90;99.90;;;;;;9533801;31;20066;-88
2022/08/30 17:28:28;;;;;;;7.60;5.20;;;18.60;99.90;;;;;;9556429;31;20412;-87
2022/08/30 17:33:29;;;;;;;7.63;5.57;;;18.30;99.90;;;;;;9531655;31;20095;-87
2022/08/30 17:44:28;;;;;;;8.55;6.05;;;17.60;99.90;;;;;;9538701;31;20047;-89
2022/08/30 17:49:35;;;;;;;10.48;6.65;;;17.40;99.90;;;;;;9544255;31;20203;-88
2022/08/30 17:54:36;;;;;;;8.98;6.35;;;17.20;99.90;;;;;;9532933;30;20506;-90
2022/08/30 18:00:00;;;;;;;7.82;6.20;;;17.00;99.90;;;;;;9535627;31;20035;-89
2022/08/30 18:05:24;;;;;;;9.30;7.03;;;16.80;99.90;;;;;;9549143;31;20047;-88
2022/08/30 18:10:25;;;;;;;10.32;6.45;;;16.60;99.90;;;;;;9544710;31;20075;-88
2022/08/30 18:15:25;;;;;;;9.35;6.30;;;16.50;99.90;;;;;;9533485;31;20050;-89
2022/08/30 18:20:26;;;;;;;10.05;6.15;;;16.40;99.90;;;;;;9544329;31;20066;-88
2022/08/30 18:25:27;;;;;;;9.60;6.25;;;16.20;99.90;;;;;;9539868;31;20510;-87
2022/08/30 18:30:28;;;;;;;9.00;5.80;;;16.10;99.90;;;;;;9546302;31;20035;-88
2022/08/30 18:35:28;;;;;;;9.77;6.43;;;16.00;99.90;;;;;;9545184;31;20458;-88
2022/08/30 18:40:29;;;;;;;9.18;6.57;;;15.90;99.90;;;;;;9537523;31;20118;-88
2022/08/30 18:45:29;;;;;;;10.02;6.22;;;15.80;99.90;;;;;;9528623;31;20410;-89
2022/08/30 18:50:31;;;;;;;9.43;6.70;;;15.70;99.90;;;;;;9549971;31;20043;-89
2022/08/30 18:55:32;;;;;;;9.02;6.50;;;15.60;99.90;;;;;;9550876;30;20052;-88
2022/08/30 19:00:33;;;;;;;10.07;6.28;;;15.60;99.90;;;;;;9540824;31;20055;-84
2022/08/30 19:05:34;;;;;;;7.60;5.82;;;15.50;99.90;;;;;;9566459;31;20067;-86
2022/08/30 19:10:34;;;;;;;10.82;7.38;;;15.50;99.90;;;;;;9545588;31;20579;-88
2022/08/30 19:15:36;;;;;;;10.13;6.47;;;15.30;99.90;;;;;;9526285;31;20110;-88
2022/08/30 19:20:37;;;;;;;10.50;6.07;;;15.30;99.90;;;;;;9528350;31;20623;-85
2022/08/30 19:25:40;;;;;;;8.90;6.57;;;15.20;99.90;;;;;;9526205;31;20098;-88
2022/08/30 19:30:40;;;;;;;9.75;6.45;;;15.10;99.90;;;;;;9542349;31;20042;-87
2022/08/30 19:35:41;;;;;;;12.80;7.00;;;15.10;99.90;;;;;;9539091;31;20058;-86
2022/08/30 19:40:42;;;;;;;8.73;6.43;;;15.00;99.90;;;;;;9547144;31;20487;-85
2022/08/30 19:45:42;;;;;;;9.02;6.75;;;14.90;99.90;;;;;;9524154;31;20446;-87
2022/08/30 19:50:43;;;;;;;12.13;6.93;;;14.90;99.90;;;;;;9548065;31;20051;-86
2022/08/30 19:55:44;;;;;;;13.48;7.85;;;14.80;99.90;;;;;;9524930;31;20115;-85
2022/08/30 20:00:45;;;;;;;10.68;7.38;;;14.70;99.90;;;;;;9535213;31;20036;-87
2022/08/30 20:05:45;;;;;;;12.10;7.95;;;14.60;99.90;;;;;;9550115;31;20405;-87
2022/08/30 20:10:46;;;;;;;12.27;7.72;;;14.60;99.90;;;;;;9545664;30;20046;-87
2022/08/30 20:15:55;;;;;;;12.65;7.45;;;14.60;99.90;;;;;;9538075;31;20486;-87
2022/08/30 20:20:56;;;;;;;14.82;7.45;;;14.50;99.90;;;;;;9554838;30;20127;-86
2022/08/30 20:25:56;;;;;;;13.45;7.68;;;14.50;99.90;;;;;;9541120;31;20066;-86
2022/08/30 20:30:57;;;;;;;16.05;8.35;;;14.50;99.90;;;;;;9553074;31;20032;-87
2022/08/30 20:36:01;;;;;;;10.93;7.75;;;14.40;99.90;;;;;;9545004;31;20529;-86
2022/08/30 20:41:11;;;;;;;11.98;7.75;;;14.40;99.90;;;;;;9557123;31;20050;-85
2022/08/30 20:46:15;;;;;;;12.75;8.15;;;14.50;99.90;;;;;;9542640;31;20047;-86
2022/08/30 20:51:18;;;;;;;11.93;7.60;;;14.50;99.90;;;;;;9544390;31;20043;-86
2022/08/30 20:56:26;;;;;;;17.67;9.65;;;14.40;99.90;;;;;;9543867;31;20114;-85
2022/08/30 21:01:28;;;;;;;12.45;8.50;;;14.30;99.90;;;;;;9539810;31;20414;-85
2022/08/30 21:06:34;;;;;;;16.17;9.63;;;14.30;99.90;;;;;;9535829;31;20040;-86
2022/08/30 21:11:36;;;;;;;14.68;8.98;;;14.50;99.90;;;;;;9540627;31;20051;-86
2022/08/30 21:16:36;;;;;;;13.35;8.27;;;14.50;99.90;;;;;;9555416;31;20044;-86
2022/08/30 21:21:37;;;;;;;12.70;7.20;;;14.50;99.90;;;;;;9570344;30;20066;-86
2022/08/30 21:26:41;;;;;;;12.68;8.48;;;14.50;99.90;;;;;;9554948;30;20098;-86
2022/08/30 21:31:41;;;;;;;11.50;7.72;;;14.40;99.90;;;;;;9541390;31;20520;-86
2022/08/30 21:36:46;;;;;;;12.07;7.70;;;14.30;99.90;;;;;;9552226;31;20055;-88
2022/08/30 21:41:47;;;;;;;11.57;7.22;;;14.30;99.90;;;;;;9559448;31;20115;-86
2022/08/30 21:46:49;;;;;;;11.65;7.88;;;14.30;99.90;;;;;;9539103;31;20402;-87
2022/08/30 21:51:52;;;;;;;11.10;6.90;;;14.20;99.90;;;;;;9547663;31;20039;-87
2022/08/30 21:56:59;;;;;;;10.25;6.18;;;14.10;99.90;;;;;;9539428;31;20062;-86
2022/08/30 22:02:00;;;;;;;9.50;6.38;;;14.20;99.90;;;;;;9529598;31;20055;-89
2022/08/30 22:07:02;;;;;;;10.15;6.50;;;14.30;99.90;;;;;;9546209;31;20044;-87
2022/08/30 22:12:04;;;;;;;12.48;6.60;;;14.30;99.90;;;;;;9550791;31;20039;-86
2022/08/30 22:17:05;;;;;;;11.70;6.35;;;14.40;99.90;;;;;;9549673;31;20052;-86
2022/08/30 22:22:06;;;;;;;11.40;6.53;;;14.50;99.90;;;;;;9546799;31;20067;-87
2022/08/30 22:27:06;;;;;;;9.82;6.30;;;14.50;99.90;;;;;;9537593;31;20124;-86
2022/08/30 22:32:07;;;;;;;12.50;6.95;;;14.50;99.90;;;;;;9544566;31;20529;-86
2022/08/30 22:37:08;;;;;;;12.00;7.10;;;14.50;99.90;;;;;;9552896;31;20557;-85
2022/08/30 22:42:08;;;;;;;9.82;6.35;;;14.50;99.90;;;;;;9552979;31;20042;-86
2022/08/30 22:47:09;;;;;;;9.93;6.30;;;14.40;99.90;;;;;;9546147;31;20651;-86
2022/08/30 22:52:09;;;;;;;9.13;5.90;;;14.30;99.90;;;;;;9544356;31;20052;-86
2022/08/30 22:57:13;;;;;;;8.45;5.53;;;14.30;99.90;;;;;;9545573;31;20481;-87
2022/08/30 23:02:14;;;;;;;11.18;7.00;;;14.30;99.90;;;;;;9547399;31;20079;-86
2022/08/30 23:07:14;;;;;;;9.68;6.40;;;14.20;99.90;;;;;;9529768;31;20111;-86
2022/08/30 23:12:15;;;;;;;12.20;6.72;;;14.10;99.90;;;;;;9553050;31;20717;-87
2022/08/30 23:17:15;;;;;;;9.05;5.85;;;14.10;99.90;;;;;;9557584;31;20572;-87
2022/08/30 23:22:16;;;;;;;9.90;6.53;;;14.00;99.90;;;;;;9549811;31;20082;-86
